Benezett, PA (15821)

4:29 PM EST on November 22, 2014 (GMT -0500)
Sterling Run | Change Station
CLOSE
Current Station
Personal Weather Station
Location: Driftwood, PA
Elevation: 932 ft
Nearby Weather Stations
Active Advisory: Freezing Rain Advisory

Elev 932 ft 41.42 °N, 78.19 °W | Updated 5 seconds ago

Overcast
Overcast
28.5 °F
Feels Like 28 °F
N
0.0
Wind Variable Wind from North
Gusts 0.0 mph

Today
High -- | Low -- °F
--% Chance of Precip.
Yesterday
High -- | Low -- °F
Precip. -- in
7:09 AM 4:48 PM
New Moon, 0% visible
Pressure 30.24 in
Visibility 6.0 miles
Clouds Overcast 2200 ft
Windchill 28 °F
Dew Point 26 °F
Humidity 90%
Rainfall 0.00 in
Snow Depth Not available.
UV 0 out of 12
Pollen .10 out of 12
Air Quality Not available.
Flu Activity Not available.
METAR KFIG 222054Z AUTO 21005KT 6SM -RA BR OVC022 01/M02 A3016 RMK AO2 RAB32 SLP239 P0000 60001 T00061017 56013

More Conditions Fewer Conditions

Pressure 30.24 in
Visibility 6.0 miles
Clouds Overcast 2200 ft
Windchill 28 °F
Dew Point 26 °F
Humidity 90%
Rainfall 0.00 in
Snow Depth Not available.
UV 0 out of 12
Pollen .10 out of 12
Air Quality Not available.
Flu Activity Not available.
METAR KFIG 222054Z AUTO 21005KT 6SM -RA BR OVC022 01/M02 A3016 RMK AO2 RAB32 SLP239 P0000 60001 T00061017 56013

More Conditions Fewer Conditions

10-Day Weather Forecast

Almanac

Astronomy

Nov. 22, 2014 Rise Set
Actual Time
Civil Twilight
Nautical Twilight
Astronomical Twilight
Moon
Length of Visible Light
Length of Day
Tomorrow will be .
, % of the Moon is Illuminated

Today's Extremes

State Highs State Lows

Community

WunderPhotos

Upload Photos

1,772,911 photos uploaded!

WunderBlogs® & News

Nearby

Air Quality

  Air Quality AQ Index Pollutant
Not available.

Snow Depth

Station Depth Elevation

Earthquake Activity

City Distance Mag. Time & Date
Minimum magnitude displayed is 2.5.

Coastal Water Temperatures

Place Temperature

Nearby Weather Stations